createdAt,value
2018-09-21T00:00:39.576Z,9.17
2018-09-21T00:03:08.677Z,12.03
2018-09-21T00:05:36.708Z,9.97
2018-09-21T00:08:04.904Z,12.90
2018-09-21T00:10:32.906Z,11.40
2018-09-21T00:13:00.914Z,16.53
2018-09-21T00:15:29.125Z,10.87
2018-09-21T00:17:57.375Z,10.50
2018-09-21T00:20:25.352Z,10.40
2018-09-21T00:22:53.449Z,16.13
2018-09-21T00:25:21.627Z,21.00
2018-09-21T00:27:49.656Z,21.40
2018-09-21T00:30:17.719Z,10.60
2018-09-21T00:32:45.758Z,12.43
2018-09-21T00:35:13.756Z,6.20
2018-09-21T00:37:42.349Z,15.43
2018-09-21T00:40:10.352Z,14.43
2018-09-21T00:42:38.349Z,10.70
2018-09-21T00:45:06.422Z,10.83
2018-09-21T00:47:34.463Z,14.37
2018-09-21T00:50:02.469Z,12.40
2018-09-21T00:52:30.480Z,8.03
2018-09-21T00:54:58.501Z,9.27
2018-09-21T00:57:26.532Z,13.27
2018-09-21T00:59:54.568Z,8.23
2018-09-21T01:02:22.572Z,9.10
2018-09-21T01:04:50.591Z,16.43
2018-09-21T01:07:18.618Z,10.77
2018-09-21T01:09:46.616Z,11.50
2018-09-21T01:12:14.658Z,9.93
2018-09-21T01:14:42.708Z,5.57
2018-09-21T01:17:10.738Z,11.50
2018-09-21T01:19:38.778Z,12.57
2018-09-21T01:22:06.822Z,15.80
2018-09-21T01:24:34.815Z,18.70
2018-09-21T01:27:02.809Z,12.23
2018-09-21T01:29:30.845Z,10.23
2018-09-21T01:31:58.862Z,8.70
2018-09-21T01:34:26.882Z,10.10
2018-09-21T01:36:54.942Z,6.03
2018-09-21T01:39:22.956Z,15.40
2018-09-21T01:41:50.973Z,9.97
2018-09-21T01:44:19.085Z,10.83
2018-09-21T01:46:47.097Z,8.73
2018-09-21T01:49:15.184Z,14.03
2018-09-21T01:51:43.373Z,14.70
2018-09-21T01:54:11.388Z,12.23
2018-09-21T01:56:39.415Z,13.10
2018-09-21T01:59:07.521Z,7.63
2018-09-21T02:01:35.535Z,16.30
2018-09-21T02:04:03.588Z,7.33
2018-09-21T02:06:31.665Z,7.23
2018-09-21T02:08:59.688Z,12.70
2018-09-21T02:11:27.684Z,7.43
2018-09-21T02:13:55.795Z,8.30
2018-09-21T02:16:23.813Z,14.20
2018-09-21T02:18:51.864Z,7.40
2018-09-21T02:21:19.865Z,16.07
2018-09-21T02:23:47.952Z,6.40
2018-09-21T02:26:15.945Z,12.50
2018-09-21T02:28:43.987Z,6.83
2018-09-21T02:31:11.977Z,7.40
2018-09-21T02:33:39.992Z,15.47
2018-09-21T02:36:08.045Z,6.63
2018-09-21T02:38:36.065Z,6.33
2018-09-21T02:41:04.072Z,10.03
2018-09-21T02:43:32.135Z,7.27
2018-09-21T02:46:00.157Z,6.60
2018-09-21T02:48:28.162Z,8.00
2018-09-21T02:50:56.203Z,5.97
2018-09-21T02:53:25.242Z,8.70
2018-09-21T02:55:53.234Z,14.67
2018-09-21T02:58:21.229Z,9.90
2018-09-21T03:00:49.379Z,6.97
2018-09-21T03:03:17.252Z,10.53
2018-09-21T03:05:45.323Z,8.70
2018-09-21T03:08:13.312Z,14.70
2018-09-21T03:10:41.360Z,16.80
2018-09-21T03:13:09.452Z,9.73
2018-09-21T03:15:37.441Z,8.20
2018-09-21T03:18:05.493Z,11.70
2018-09-21T03:20:33.499Z,11.97
2018-09-21T03:23:01.501Z,13.40
2018-09-21T03:25:29.581Z,11.80
2018-09-21T03:27:57.613Z,12.83
2018-09-21T03:30:25.604Z,9.80
2018-09-21T03:32:53.593Z,10.00
2018-09-21T03:35:21.723Z,8.93
2018-09-21T03:37:49.687Z,10.20
2018-09-21T03:40:17.697Z,9.37
2018-09-21T03:42:45.748Z,12.03
2018-09-21T03:45:13.771Z,11.53
2018-09-21T03:47:41.856Z,10.60
2018-09-21T03:50:09.869Z,13.10
2018-09-21T03:52:37.900Z,11.20
2018-09-21T03:55:06.480Z,8.67
2018-09-21T03:57:34.568Z,9.40
2018-09-21T04:00:02.580Z,12.23
2018-09-21T04:02:30.630Z,13.60
2018-09-21T04:04:58.649Z,5.53
2018-09-21T04:07:26.647Z,9.43
2018-09-21T04:09:54.665Z,9.60
2018-09-21T04:12:22.730Z,7.53
2018-09-21T04:14:50.779Z,8.43
2018-09-21T04:17:18.764Z,10.07
2018-09-21T04:19:46.791Z,7.27
2018-09-21T04:22:14.812Z,13.83
2018-09-21T04:24:42.819Z,5.90
2018-09-21T04:27:10.817Z,9.90
2018-09-21T04:29:38.845Z,8.23
2018-09-21T04:32:06.881Z,12.90
2018-09-21T04:34:35.043Z,7.80
2018-09-21T04:37:03.041Z,12.43
2018-09-21T04:39:31.109Z,12.83
2018-09-21T04:41:59.131Z,6.73
2018-09-21T04:44:27.137Z,12.50
2018-09-21T04:46:55.208Z,7.90
2018-09-21T04:49:23.220Z,10.73
2018-09-21T04:51:51.244Z,15.03
2018-09-21T04:54:19.260Z,7.13
2018-09-21T04:56:47.276Z,10.50
2018-09-21T04:59:15.377Z,9.40
2018-09-21T05:01:43.404Z,16.33
2018-09-21T05:04:11.413Z,13.67
2018-09-21T05:06:39.412Z,12.13
2018-09-21T05:09:09.580Z,16.60
2018-09-21T05:11:37.597Z,14.43
2018-09-21T05:14:05.666Z,10.00
2018-09-21T05:16:33.693Z,10.13
2018-09-21T05:19:01.713Z,16.10
2018-09-21T05:21:29.705Z,10.67
2018-09-21T05:23:57.717Z,6.27
2018-09-21T05:26:25.776Z,10.13
2018-09-21T05:28:53.846Z,25.30
2018-09-21T05:31:22.919Z,10.90
2018-09-21T05:33:50.940Z,11.90
2018-09-21T05:36:19.019Z,14.30
2018-09-21T05:38:47.224Z,14.40
2018-09-21T05:41:15.425Z,9.60
2018-09-21T05:43:43.433Z,11.50
2018-09-21T05:46:11.445Z,8.30
2018-09-21T05:48:39.623Z,15.50
2018-09-21T05:51:07.705Z,20.17
2018-09-21T05:53:35.789Z,6.47
2018-09-21T05:56:03.868Z,11.93
2018-09-21T05:58:31.801Z,9.80
2018-09-21T06:00:59.833Z,9.90
2018-09-21T06:03:29.088Z,13.97
2018-09-21T06:05:57.129Z,15.30
2018-09-21T06:08:25.161Z,19.53
2018-09-21T06:10:53.251Z,17.60
2018-09-21T06:13:21.356Z,11.07
2018-09-21T06:15:49.420Z,8.53
2018-09-21T06:18:18.069Z,13.40
2018-09-21T06:20:46.101Z,11.80
2018-09-21T06:23:14.142Z,8.80
2018-09-21T06:25:42.209Z,9.07
2018-09-21T06:28:10.261Z,10.90
2018-09-21T06:30:38.264Z,9.83
2018-09-21T06:33:06.297Z,9.97
2018-09-21T06:35:35.374Z,6.40
2018-09-21T06:38:03.399Z,14.30
2018-09-21T06:40:31.433Z,12.93
2018-09-21T06:42:59.645Z,12.60
2018-09-21T06:45:27.716Z,9.37
2018-09-21T06:47:55.712Z,10.70
2018-09-21T06:50:23.709Z,6.87
2018-09-21T06:52:51.967Z,5.97
2018-09-21T06:55:20.094Z,13.93
2018-09-21T06:57:49.132Z,9.83
2018-09-21T07:00:17.323Z,9.67
2018-09-21T07:02:45.347Z,16.63
2018-09-21T07:05:14.594Z,15.33
2018-09-21T07:07:42.967Z,14.33
2018-09-21T07:10:11.521Z,9.53
2018-09-21T07:12:39.649Z,10.13
2018-09-21T07:15:08.047Z,8.57
2018-09-21T07:17:36.113Z,8.27
2018-09-21T07:20:04.477Z,7.93
2018-09-21T07:22:32.565Z,8.67
2018-09-21T07:25:00.731Z,12.40
2018-09-21T07:27:28.899Z,13.00
2018-09-21T07:29:58.020Z,10.47
2018-09-21T07:32:26.229Z,18.07
2018-09-21T07:34:54.879Z,11.00
2018-09-21T07:37:22.926Z,8.70
2018-09-21T07:39:50.916Z,11.60
2018-09-21T07:42:18.947Z,8.20
2018-09-21T07:44:46.933Z,9.90
2018-09-21T07:47:14.953Z,18.40
2018-09-21T07:49:43.101Z,6.00
2018-09-21T07:52:11.244Z,11.10
2018-09-21T07:54:39.251Z,12.13
2018-09-21T07:57:07.344Z,6.97
2018-09-21T07:59:35.373Z,16.87
2018-09-21T08:02:03.380Z,6.10
2018-09-21T08:04:31.417Z,17.63
2018-09-21T08:06:59.593Z,23.50
2018-09-21T08:09:27.640Z,7.40
2018-09-21T08:11:55.700Z,15.73
2018-09-21T08:14:23.781Z,10.50
2018-09-21T08:16:51.813Z,10.00
2018-09-21T08:19:19.865Z,11.67
2018-09-21T08:21:47.865Z,10.37
2018-09-21T08:24:16.072Z,12.10
2018-09-21T08:26:44.232Z,12.63
2018-09-21T08:29:12.337Z,18.43
2018-09-21T08:31:40.385Z,19.07
2018-09-21T08:34:08.394Z,19.13
2018-09-21T08:36:36.425Z,8.67
2018-09-21T08:39:06.990Z,9.20
2018-09-21T08:41:35.017Z,8.50
2018-09-21T08:44:03.162Z,20.43
2018-09-21T08:46:31.164Z,13.10
2018-09-21T08:48:59.184Z,31.03
2018-09-21T08:51:27.201Z,29.50
2018-09-21T08:53:55.217Z,50.90
2018-09-21T08:56:23.241Z,30.97
2018-09-21T08:58:51.287Z,56.97
2018-09-21T09:01:19.284Z,49.53
2018-09-21T09:03:47.425Z,58.97
2018-09-21T09:06:15.489Z,29.97
2018-09-21T09:08:43.545Z,17.87
2018-09-21T09:11:11.617Z,32.33
2018-09-21T09:13:39.769Z,12.93
2018-09-21T09:16:07.805Z,30.13
2018-09-21T09:18:35.853Z,29.83
2018-09-21T09:21:03.841Z,31.97
2018-09-21T09:23:31.865Z,34.20
2018-09-21T09:25:59.917Z,34.17
2018-09-21T09:28:27.972Z,16.60
2018-09-21T09:30:55.990Z,30.37
2018-09-21T09:33:24.010Z,33.17
2018-09-21T09:35:52.037Z,23.63
2018-09-21T09:38:20.082Z,27.03
2018-09-21T09:40:48.277Z,23.77
2018-09-21T09:43:16.353Z,14.07
2018-09-21T09:45:44.401Z,9.97
2018-09-21T09:48:12.523Z,8.90
2018-09-21T09:50:40.529Z,22.33
2018-09-21T09:53:08.731Z,11.27
2018-09-21T09:55:36.749Z,29.67
2018-09-21T09:58:04.788Z,15.80
2018-09-21T10:00:35.845Z,17.63
2018-09-21T10:03:03.905Z,22.67
2018-09-21T10:05:32.964Z,9.70
2018-09-21T10:08:01.043Z,26.80
2018-09-21T10:10:29.153Z,18.77
2018-09-21T10:12:57.174Z,12.07
2018-09-21T10:15:25.193Z,8.00
2018-09-21T10:17:53.200Z,13.57
2018-09-21T10:20:21.193Z,9.37
2018-09-21T10:22:49.584Z,24.63
2018-09-21T10:25:17.578Z,9.37
2018-09-21T10:27:45.872Z,12.80
2018-09-21T10:30:13.726Z,24.90
2018-09-21T10:32:41.795Z,29.70
2018-09-21T10:35:10.021Z,15.13
2018-09-21T10:37:38.024Z,9.23
2018-09-21T10:40:06.205Z,9.67
2018-09-21T10:42:34.328Z,9.47
2018-09-21T10:45:02.309Z,9.07
2018-09-21T10:47:30.320Z,14.80
2018-09-21T10:49:58.366Z,7.90
2018-09-21T10:52:26.357Z,13.27
2018-09-21T10:54:54.441Z,7.60
2018-09-21T10:57:22.477Z,11.37
2018-09-21T10:59:50.489Z,8.47
2018-09-21T11:02:18.529Z,7.80
2018-09-21T11:04:46.540Z,7.30
2018-09-21T11:07:14.642Z,5.10
2018-09-21T11:09:42.713Z,7.63
2018-09-21T11:12:10.719Z,3.33
2018-09-21T11:14:38.756Z,6.83
2018-09-21T11:17:06.948Z,6.07
2018-09-21T11:19:35.072Z,14.20
2018-09-21T11:22:03.077Z,12.13
2018-09-21T11:24:31.105Z,6.20
2018-09-21T11:26:59.137Z,9.50
2018-09-21T11:29:27.214Z,22.10
2018-09-21T11:31:55.201Z,17.87
2018-09-21T11:34:23.237Z,7.07
2018-09-21T11:36:51.256Z,13.23
2018-09-21T11:39:19.273Z,22.10
2018-09-21T11:41:47.296Z,13.90
2018-09-21T11:44:15.317Z,10.70
2018-09-21T11:46:43.355Z,13.63
2018-09-21T11:49:11.345Z,9.50
2018-09-21T11:51:39.357Z,5.17
2018-09-21T11:54:07.379Z,13.33
2018-09-21T11:56:35.377Z,10.47
2018-09-21T11:59:03.412Z,20.67
2018-09-21T12:01:31.417Z,18.10
2018-09-21T12:03:59.449Z,15.63
2018-09-21T12:06:27.500Z,7.40
2018-09-21T12:08:55.521Z,9.13
2018-09-21T12:11:23.575Z,15.93
2018-09-21T12:13:51.599Z,13.20
2018-09-21T12:16:19.605Z,10.43
2018-09-21T12:18:47.600Z,11.73
2018-09-21T12:21:15.593Z,13.23
2018-09-21T12:23:43.597Z,17.10
2018-09-21T12:26:11.602Z,9.23
2018-09-21T12:28:39.609Z,7.80
2018-09-21T12:31:07.776Z,4.77
2018-09-21T12:33:36.073Z,8.43
2018-09-21T12:36:04.566Z,13.17
2018-09-21T12:38:32.686Z,11.50
2018-09-21T12:41:00.656Z,12.97
2018-09-21T12:43:28.669Z,13.77
2018-09-21T12:45:56.694Z,16.77
2018-09-21T12:48:24.668Z,8.13
2018-09-21T12:50:52.748Z,17.57
2018-09-21T12:53:20.721Z,5.50
2018-09-21T12:55:48.782Z,7.07
2018-09-21T12:58:16.864Z,9.00
2018-09-21T13:00:50.772Z,20.13
2018-09-21T13:03:18.897Z,13.67
2018-09-21T13:05:46.949Z,15.47
2018-09-21T13:08:15.012Z,16.27
2018-09-21T13:10:43.073Z,9.50
2018-09-21T13:13:11.110Z,12.10
2018-09-21T13:15:39.153Z,6.27
2018-09-21T13:18:08.096Z,8.07
2018-09-21T13:20:36.320Z,14.83
2018-09-21T13:23:04.396Z,10.17
2018-09-21T13:25:32.534Z,22.27
2018-09-21T13:28:00.557Z,18.90
2018-09-21T13:30:28.598Z,9.43
2018-09-21T13:32:56.581Z,12.37
2018-09-21T13:35:25.379Z,11.17
2018-09-21T13:37:53.433Z,4.40
2018-09-21T13:40:21.510Z,14.43
2018-09-21T13:42:49.512Z,16.70
2018-09-21T13:45:17.593Z,17.50
2018-09-21T13:47:45.577Z,12.63
2018-09-21T13:50:13.581Z,9.40
2018-09-21T13:52:41.629Z,15.23
2018-09-21T13:55:09.665Z,10.57
2018-09-21T13:57:37.676Z,8.23
2018-09-21T14:00:06.136Z,4.03
2018-09-21T14:02:34.173Z,1.83
2018-09-21T14:05:02.176Z,8.43
2018-09-21T14:07:30.194Z,5.97
2018-09-21T14:09:58.208Z,5.63
2018-09-21T14:12:26.184Z,4.40
2018-09-21T14:14:54.374Z,5.20
2018-09-21T14:17:22.373Z,15.10
2018-09-21T14:19:50.392Z,3.50
2018-09-21T14:22:18.385Z,7.73
2018-09-21T14:24:46.370Z,3.37
2018-09-21T14:27:14.492Z,4.20
2018-09-21T14:29:42.691Z,7.13
2018-09-21T14:32:10.968Z,7.07
2018-09-21T14:34:38.976Z,3.07
2018-09-21T14:37:07.204Z,3.47
2018-09-21T14:39:35.234Z,6.93
2018-09-21T14:42:03.254Z,8.40
2018-09-21T14:44:31.272Z,5.27
2018-09-21T14:46:59.344Z,4.40
2018-09-21T14:49:27.384Z,9.23
2018-09-21T14:51:55.403Z,10.10
2018-09-21T14:54:23.404Z,3.37
2018-09-21T14:56:51.429Z,1.97
2018-09-21T14:59:19.444Z,7.47
2018-09-21T15:01:47.458Z,3.53
2018-09-21T15:04:15.542Z,3.13
2018-09-21T15:06:43.561Z,6.90
2018-09-21T15:09:11.997Z,4.43
2018-09-21T15:11:40.797Z,4.47
2018-09-21T15:14:09.075Z,5.27
2018-09-21T15:16:37.529Z,4.30
2018-09-21T15:19:05.445Z,2.30
2018-09-21T15:21:33.628Z,7.83
2018-09-21T15:24:01.643Z,4.80
2018-09-21T15:26:29.668Z,3.63
2018-09-21T15:28:57.700Z,1.90
2018-09-21T15:31:25.758Z,7.27
2018-09-21T15:33:53.777Z,5.73
2018-09-21T15:36:22.057Z,2.90
2018-09-21T15:38:50.229Z,1.60
2018-09-21T15:41:18.306Z,2.93
2018-09-21T15:43:46.578Z,3.63
2018-09-21T15:46:14.586Z,2.30
2018-09-21T15:48:42.766Z,7.70
2018-09-21T15:51:10.771Z,6.17
2018-09-21T15:53:38.785Z,1.00
2018-09-21T15:56:06.810Z,2.87
2018-09-21T15:58:34.845Z,3.80
2018-09-21T16:01:02.922Z,17.00
2018-09-21T16:03:30.925Z,3.73
2018-09-21T16:05:58.953Z,4.03
2018-09-21T16:08:26.961Z,3.43
2018-09-21T16:10:55.005Z,1.33
2018-09-21T16:13:23.018Z,5.50
2018-09-21T16:15:51.024Z,1.83
2018-09-21T16:18:19.036Z,5.33
2018-09-21T16:20:47.029Z,5.30
2018-09-21T16:23:15.041Z,2.33
2018-09-21T16:25:43.190Z,1.90
2018-09-21T16:28:11.184Z,2.23
2018-09-21T16:30:39.187Z,3.40
2018-09-21T16:33:07.205Z,1.90
2018-09-21T16:35:35.217Z,5.63
2018-09-21T16:38:03.359Z,2.93
2018-09-21T16:40:31.418Z,3.53
2018-09-21T16:42:59.422Z,2.03
2018-09-21T16:45:27.433Z,4.77
2018-09-21T16:47:55.626Z,2.53
2018-09-21T16:50:23.730Z,5.10
2018-09-21T16:52:51.773Z,7.00
2018-09-21T16:55:19.847Z,3.73
2018-09-21T16:57:47.849Z,3.87
2018-09-21T17:00:15.852Z,1.10
2018-09-21T17:02:43.872Z,4.53
2018-09-21T17:05:11.912Z,8.00
2018-09-21T17:07:39.897Z,2.77
2018-09-21T17:10:07.933Z,3.53
2018-09-21T17:12:35.974Z,7.70
2018-09-21T17:15:03.972Z,11.43
2018-09-21T17:17:31.994Z,10.80
2018-09-21T17:20:00.010Z,3.13
2018-09-21T17:22:28.035Z,2.93
2018-09-21T17:24:56.021Z,5.37
2018-09-21T17:27:24.017Z,2.33
2018-09-21T17:29:52.001Z,6.97
2018-09-21T17:32:20.165Z,2.00
2018-09-21T17:34:48.236Z,2.23
2018-09-21T17:37:16.393Z,2.53
2018-09-21T17:39:44.429Z,3.40
2018-09-21T17:42:12.456Z,1.70
2018-09-21T17:44:40.472Z,3.00
2018-09-21T17:47:08.489Z,1.70
2018-09-21T17:49:36.496Z,2.83
2018-09-21T17:52:04.617Z,9.03
2018-09-21T17:54:32.672Z,11.63
2018-09-21T17:57:00.798Z,4.13
2018-09-21T17:59:28.828Z,4.20
2018-09-21T18:01:56.843Z,4.87
2018-09-21T18:04:24.838Z,3.70
2018-09-21T18:06:52.873Z,3.80
2018-09-21T18:09:20.888Z,5.60
2018-09-21T18:11:48.898Z,4.63
2018-09-21T18:14:16.908Z,5.50
2018-09-21T18:16:44.913Z,2.53
2018-09-21T18:19:12.939Z,2.93
2018-09-21T18:21:40.908Z,8.23
2018-09-21T18:24:09.056Z,1.27
2018-09-21T18:26:37.268Z,5.57
2018-09-21T18:29:05.782Z,6.83
2018-09-21T18:31:33.838Z,4.47
2018-09-21T18:34:01.836Z,3.57
2018-09-21T18:36:29.883Z,7.67
2018-09-21T18:38:58.076Z,6.50
2018-09-21T18:41:26.070Z,6.30
2018-09-21T18:43:54.185Z,5.43
2018-09-21T18:46:22.141Z,3.90
2018-09-21T18:48:50.169Z,4.57
2018-09-21T18:51:18.174Z,4.80
2018-09-21T18:53:46.194Z,6.00
2018-09-21T18:56:14.211Z,6.47
2018-09-21T18:58:42.229Z,6.80
2018-09-21T19:01:10.258Z,2.30
2018-09-21T19:03:38.295Z,3.37
2018-09-21T19:06:06.433Z,4.30
2018-09-21T19:08:34.448Z,7.63
2018-09-21T19:11:02.565Z,1.67
2018-09-21T19:13:30.536Z,8.13
2018-09-21T19:15:58.537Z,3.37
2018-09-21T19:18:26.553Z,2.30
2018-09-21T19:20:54.566Z,0.73
2018-09-21T19:23:22.578Z,5.17
2018-09-21T19:25:50.661Z,0.73
2018-09-21T19:28:18.660Z,1.30
2018-09-21T19:30:46.692Z,1.80
2018-09-21T19:33:14.704Z,3.20
2018-09-21T19:35:42.739Z,0.87
2018-09-21T19:38:10.749Z,0.70
2018-09-21T19:40:38.801Z,17.03
2018-09-21T19:43:07.171Z,2.27
2018-09-21T19:45:35.122Z,2.00
2018-09-21T19:48:03.190Z,2.30
2018-09-21T19:50:31.207Z,0.80
2018-09-21T19:52:59.291Z,3.60
2018-09-21T19:55:27.259Z,0.77
2018-09-21T19:57:55.281Z,0.60
2018-09-21T20:00:23.317Z,1.47
2018-09-21T20:02:51.362Z,2.23
2018-09-21T20:05:19.393Z,0.90
2018-09-21T20:07:47.414Z,0.60
2018-09-21T20:10:15.456Z,0.70
2018-09-21T20:12:43.706Z,0.60
2018-09-21T20:15:11.724Z,0.93
2018-09-21T20:17:39.728Z,0.87
2018-09-21T20:20:07.738Z,1.90
2018-09-21T20:22:35.745Z,0.80
2018-09-21T20:25:03.747Z,3.30
2018-09-21T20:27:31.734Z,0.50
2018-09-21T20:30:05.144Z,1.37
2018-09-21T20:32:38.517Z,1.23
2018-09-21T20:35:06.518Z,0.70
2018-09-21T20:37:34.554Z,1.97
2018-09-21T20:40:02.740Z,0.70
2018-09-21T20:42:30.797Z,2.00
2018-09-21T20:44:58.805Z,0.60
2018-09-21T20:47:26.827Z,0.60
2018-09-21T20:49:54.828Z,0.53
2018-09-21T20:52:23.211Z,1.47
2018-09-21T20:54:51.345Z,1.23
2018-09-21T20:57:19.350Z,0.97
2018-09-21T20:59:47.451Z,2.87
2018-09-21T21:02:15.490Z,0.97
2018-09-21T21:04:43.568Z,1.03
2018-09-21T21:07:11.554Z,0.50
2018-09-21T21:09:39.588Z,0.60
2018-09-21T21:12:07.709Z,0.80
2018-09-21T21:14:35.748Z,0.70
2018-09-21T21:19:26.808Z,0.50
2018-09-21T21:21:55.165Z,1.20
2018-09-21T21:24:23.229Z,1.63
2018-09-21T21:26:51.408Z,2.20
2018-09-21T21:29:19.436Z,1.47
2018-09-21T21:31:47.982Z,1.85
2018-09-21T21:34:16.120Z,0.60
2018-09-21T21:36:44.178Z,0.73
2018-09-21T21:39:12.181Z,0.67
2018-09-21T21:41:42.201Z,2.27
2018-09-21T21:44:10.445Z,2.30
2018-09-21T21:46:38.529Z,0.60
2018-09-21T21:49:06.629Z,0.80
2018-09-21T21:51:34.713Z,2.23
2018-09-21T21:54:02.933Z,1.70
2018-09-21T21:56:30.947Z,1.03
2018-09-21T21:58:59.467Z,1.23
2018-09-21T22:01:33.006Z,2.47
2018-09-21T22:04:01.083Z,3.90
2018-09-21T22:06:29.090Z,2.47
2018-09-21T22:08:57.079Z,2.40
2018-09-21T22:11:30.593Z,2.33
2018-09-21T22:14:05.052Z,1.17
2018-09-21T22:16:33.073Z,0.90
2018-09-21T22:19:01.114Z,1.30
2018-09-21T22:21:29.333Z,1.33
2018-09-21T22:23:57.508Z,6.87
2018-09-21T22:26:25.621Z,3.23
2018-09-21T22:28:53.658Z,3.33
2018-09-21T22:31:21.656Z,6.33
2018-09-21T22:33:49.660Z,2.83
2018-09-21T22:36:17.776Z,0.70
2018-09-21T22:38:45.886Z,1.70
2018-09-21T22:41:13.893Z,4.27
2018-09-21T22:43:41.961Z,3.90
2018-09-21T22:46:09.981Z,0.90
2018-09-21T22:48:38.045Z,1.20
2018-09-21T22:51:06.050Z,3.23
2018-09-21T22:53:34.074Z,2.80
2018-09-21T22:56:02.081Z,3.70
2018-09-21T22:58:30.084Z,3.90
2018-09-21T23:00:58.189Z,2.83
2018-09-21T23:03:26.181Z,4.50
2018-09-21T23:05:54.209Z,0.63
2018-09-21T23:08:22.235Z,2.90
2018-09-21T23:10:50.257Z,0.60
2018-09-21T23:13:18.356Z,5.80
2018-09-21T23:15:46.357Z,0.60
2018-09-21T23:18:14.381Z,0.80
2018-09-21T23:20:42.378Z,0.67
2018-09-21T23:23:10.398Z,1.07
2018-09-21T23:25:38.472Z,1.47
2018-09-21T23:28:06.485Z,1.60
2018-09-21T23:30:34.507Z,0.83
2018-09-21T23:33:02.592Z,1.70
2018-09-21T23:35:30.607Z,3.33
2018-09-21T23:37:58.890Z,7.50
2018-09-21T23:40:26.942Z,4.03
2018-09-21T23:42:54.992Z,4.53
2018-09-21T23:45:23.000Z,7.47
2018-09-21T23:47:51.025Z,1.13
2018-09-21T23:50:19.253Z,2.37
2018-09-21T23:52:47.272Z,4.07
2018-09-21T23:55:15.299Z,3.80
2018-09-21T23:57:43.323Z,4.60
